Airfield :
LOGIN :

Register | Disclaimer

   EN    FR    IT 

 










Legend :    VFR   Marginal VFR   IFR   Intensive IFR   Very Intensive IFR
Visi :
Ceiling :
>= 8 km
>= 3000ft
5 to 8 km
1000 to 3000 ft
1500m to 5 km
500 to 1000 ft
800 to 1500m
200 to 500 ft
< 800m
< 200 ft
Symbols :   Thunderstorms  Fog  Heavy snow  Heavy precipitations  Wind > 20 kt
SIGMETs :     Misc.  Thunderstorms  Icing  Turbulence  Mountain Waves  Volcanic Ashes






- Airport Elevation : 436 ft
- IATA code : ANG


LFBU - Angoulême Brie Champniers

CURRENT METAR :
  • 110030Z AUTO 17007KT CAVOK 06/02 Q1019

EXPIRED METARs :
  • 110000Z AUTO 17008KT CAVOK 07/02 Q1019
  • 102330Z AUTO 16012KT 130V190 CAVOK 07/03 Q1019
  • 102300Z AUTO 15010KT CAVOK 06/03 Q1019
  • 102230Z AUTO 16009KT CAVOK 06/03 Q1020
  • 102200Z AUTO 16008KT 130V190 CAVOK 06/03 Q1020

TAF TAF LFBU
Valid from the 10 at 18:00 until the 11 at 18:00 UTC


101700Z 1018/1118 15006KT CAVOK
BECMG 1102/1104 OVC030
TEMPO 1105/1108 4000 RA BKN005 OVC015
BECMG 1111/1113 25005KT CAVOK
TEMPO 1114/1118 27010G25KT -SHRA SCT025TCU



MET'MAP, your aeronautical weather chart ! - Copyright ORBIFLY December 2007 - Disclaimer

ORBIFLY MET'MAP TEAM :

Programming & Development : Alexandra Zaïnal
Concept & original design : Baudouin d'Aumeries
Assistance for programming : Marc-Olivier Méhu
Technical & hardware support : Manuel Goepfert

Contact : metmap@orbifly.com




SOURCES & CREDITS :

   NOAA